Tiempo atmosférico en la estación meteorológica de Llorac, Tarragona (660 m.)



Fecha
DESCASC
Temp. máxima en grados centígrados (hora)
DESCASC
Temp. mínima en grados centígrados (hora)
DESCASC
Temp. media en grados centígrados
DESCASC
Racha de viento máxima en m/sg (hora)
DESCASC
Velocidad máxima media en intervalos de 10 minutos(hora)
DESCASC
Precipitaciones diarias en mm
DESCASC
Precipitaciones de 00:00 a 06:00 en mm
DESCASC
Precipitaciones de 06:00 a 12:00 en mm
DESCASC
Precipitaciones de 12:00 a 18:00 en mm
DESCASC
Precipitaciones de 18:00 a 24:00 en mm
DESCASC
02-07-2020 30.2 (17:10) 14.6 (06:20) 22.4 8.61 (18:50) 5 (19:10) 0.6 0 0 0 0.6
01-07-2020 33.2 (16:30) 13.4 (06:40) 23.3 8.33 (13:20) 4.72 (17:40) 0 0 0 0 0
30-06-2020 28.2 (14:30) 16.4 (00:00) 22.3 10 (15:00) 5.56 (17:00) 0 0 0 0 0
29-06-2020 30.3 (14:20) 15.1 (00:00) 22.7 9.17 (18:00) 5.28 (17:50) 0 0 0 0 0
28-06-2020 29.8 (13:00) 15 (00:00) 22.4 8.33 (17:10) 4.72 (17:50) 0 0 0 0 0
27-06-2020 30.8 (15:50) 11.3 (00:00) 21 7.22 (16:20) 3.89 (15:10) 0 0 0 0 0
26-06-2020 28.6 (14:10) 11.4 (00:00) 20 11.39 (18:20) 6.39 (18:20) 0 0 0 0 0
25-06-2020 30.2 (12:40) 14.4 (00:00) 22.3 10 (19:20) 6.11 (19:20) 0 0 0 0 0
24-06-2020 27.2 (12:50) 12 (00:00) 19.6 10.83 (17:00) 6.11 (13:40) 0 0 0 0 0
23-06-2020 27.4 (12:20) 13.7 (00:00) 20.5 9.44 (17:30) 5.56 (15:40) 0 0 0 0 0
22-06-2020 28.8 (16:20) 10.4 (00:00) 19.6 8.06 (19:00) 4.72 (23:40) 0 0 0 0 0
21-06-2020 28.9 (19:10) 13.4 (00:00) 21.1 10.56 (16:10) 7.22 (16:50) 0 0 0 0 0
20-06-2020 26.9 (15:10) 11.8 (00:00) 19.3 6.94 (16:20) 4.17 (18:40) 0 0 0 0 0
19-06-2020 23.3 (16:30) 12.1 (00:00) 17.7 9.17 (18:00) 5 (18:20) 0 0 0 0 0
18-06-2020 23.5 (16:50) 9.9 (01:40) 16.7 6.94 (19:00) 4.44 (12:20) 15.6 1.8 13.8 0 0
17-06-2020 22.1 (17:20) 8.6 (00:00) 15.4 9.17 (14:20) 6.11 (14:10) 0 0 0 0 0
16-06-2020 20 (19:00) 9.8 (00:00) 14.9 7.22 (21:00) 4.44 (16:00) 19 2.4 9.4 7 0.2
15-06-2020 25.4 (15:10) 9.4 (00:00) 17.4 10.56 (16:40) 6.67 (18:00) 0 0 0 0 0
14-06-2020 24.1 (14:10) 4.7 (00:00) 14.4 7.78 (15:40) 4.17 (15:40) 0 0 0 0 0
13-06-2020 21.4 (19:20) 7.1 (00:00) 14.2 12.5 (16:50) 8.61 (09:10) 0 0 0 0 0
12-06-2020 21.5 (19:00) 12.2 (00:00) 16.8 11.11 (13:00) 6.94 (10:10) 2.4 2.2 0 0 0.2
11-06-2020 21.6 (13:30) 10.3 (00:00) 16 10 (23:30) 6.11 (11:30) 0.4 0 0 0.4 0
10-06-2020 21.8 (18:20) 4.1 (00:00) 12.9 9.17 (17:00) 5.83 (18:10) 0 0 0 0 0
09-06-2020 21.1 (16:20) 5.7 (00:00) 13.4 9.44 (11:20) 6.11 (17:10) 1.6 0 0 0 1.6
08-06-2020 18.7 (14:10) 5.6 (06:10) 12.2 7.5 (08:20) 5.56 (08:30) 0.6 0 0 0.6 0
07-06-2020 21.8 (15:30) 10.8 (00:00) 16.3 10 (16:50) 5 (14:10) 5 1.2 0 1.8 2
06-06-2020 26.4 (14:00) 7.4 (00:00) 16.9 8.61 (14:10) 5.28 (19:30) 0 0 0 0 0
05-06-2020 21.9 (19:30) 9.4 (00:00) 15.6 13.61 (08:20) 9.72 (09:00) 0 0 0 0 0
04-06-2020 19.3 (18:10) 11.8 (00:00) 15.5 17.5 (18:20) 11.11 (18:50) 3 0.2 2.8 0 0

Gráficas

Temp. máximas Temp. mínimas Temp. medias Precipitaciones Rachas de viento máximas Velocidades máximas media en intervalos de 10 minutos

Datos horarios

Fecha y hora oficial Temperatura (ºC) Velocidad del viento (km/h) Dirección del viento Racha (km/h) Dirección de racha Precipitación (mm) Presión (hPa) Tendencia (hPa) Humedad (%)
2020-07-03 23:00:00 14.9 3 Este 10 Este 0 -- -- 85
2020-07-03 22:00:00 17.7 4 Este 13 Sudoeste 0 -- -- 67
2020-07-03 21:00:00 24.2 8 Sudoeste 24 Noroeste 0 -- -- 34
2020-07-03 20:00:00 25.1 19 Noroeste 32 Oeste 0 -- -- 32
2020-07-03 19:00:00 25.7 18 Oeste 36 Oeste 0 -- -- 34
2020-07-03 18:00:00 25.4 19 Noroeste 37 Noroeste 0 -- -- 40
2020-07-03 17:00:00 25.2 17 Noroeste 33 Oeste 0 -- -- 42
2020-07-03 16:00:00 24.5 17 Oeste 36 Noroeste 0 -- -- 44
2020-07-03 15:00:00 23.5 22 Noroeste 40 Noroeste 0 -- -- 44
2020-07-03 14:00:00 22.4 21 Noroeste 34 Noroeste 0 -- -- 50
2020-07-03 13:00:00 21.1 22 Noroeste 33 Noroeste 0 -- -- 56
2020-07-03 12:00:00 19.9 20 Noroeste 31 Noroeste 0 -- -- 59
2020-07-03 11:00:00 18.5 22 Noroeste 31 Oeste 0 -- -- 64
2020-07-03 10:00:00 17.4 17 Noroeste 28 Oeste 0 -- -- 69
2020-07-03 09:00:00 15.1 17 Noroeste 25 Noroeste 0 -- -- 78
2020-07-03 08:00:00 14.3 15 Noroeste 24 Noroeste 0 -- -- 83
2020-07-03 07:00:00 13.8 15 Noroeste 24 Noroeste 0 -- -- 87
2020-07-03 06:00:00 13.9 13 Noroeste 30 Noroeste 0 -- -- 87
2020-07-03 05:00:00 15.1 21 Noroeste 26 Noroeste 0 -- -- 84
2020-07-03 04:00:00 16.6 13 Noroeste 24 Noroeste 0 -- -- 85
2020-07-03 03:00:00 19 6 Oeste 12 Noroeste 0 -- -- 93
2020-07-03 02:00:00 18.6 4 Sudeste 13 Sur 0 -- -- 95
2020-07-03 01:00:00 18.6 8 Sudeste 15 Sudeste 0 -- -- 93
2020-07-03 00:00:00 18.1 9 Sur 22 Sudeste 0.6 -- -- 91
2020-07-02 23:00:00 19 15 Sudeste 28 Sudeste 0 -- -- 88
2020-07-02 22:00:00 19.7 14 Sudeste 24 Sur 0 -- -- 86
2020-07-02 21:00:00 22.4 15 Sur 26 Sur 0 -- -- 75
2020-07-02 20:00:00 24.4 14 Sur 28 Sur 0 -- -- 69
2020-07-02 19:00:00 25.7 17 Sur 31 Sur 0 -- -- 64
2020-07-02 18:00:00 27.6 14 Sudoeste 26 Sur 0 -- -- 59
2020-07-02 17:00:00 29.8 5 Noroeste 20 Noroeste 0 -- -- 49
2020-07-02 16:00:00 29.3 8 Oeste 26 Sudeste 0 -- -- 51
2020-07-02 15:00:00 27.2 8 Oeste 21 Noroeste 0 -- -- 57
2020-07-02 14:00:00 26.5 11 Noroeste 26 Noroeste 0 -- -- 58
2020-07-02 13:00:00 25.8 9 Noroeste 23 Oeste 0 -- -- 60
2020-07-02 12:00:00 26.4 10 Noroeste 18 Noroeste 0 -- -- 60
2020-07-02 11:00:00 25.4 14 Noroeste 19 Oeste 0 -- -- 66
2020-07-02 10:00:00 24.3 9 Sudoeste 15 Sudeste 0 -- -- 67
2020-07-02 09:00:00 23.4 4 Sudeste 8 Sudeste 0 -- -- 71
2020-07-02 08:00:00 18 5 Sudeste 9 Sudeste 0 -- -- 94
2020-07-02 07:00:00 14.7 4 Sudeste 6 Sudeste 0 -- -- 99
2020-07-02 06:00:00 14.9 5 Sudeste 10 Este 0 -- -- 99
2020-07-02 05:00:00 15.3 5 Sudeste 8 Sudeste 0 -- -- 97
2020-07-02 04:00:00 16.3 6 Sudeste 9 Sudeste 0 -- -- 96
2020-07-02 03:00:00 17.9 4 Sudeste 15 Sudeste 0 -- -- 92
2020-07-02 02:00:00 19.2 9 Sudeste 13 Sudeste 0 -- -- 89
2020-07-02 01:00:00 19.6 11 Sudeste 18 Sudeste 0 -- -- 89
2020-07-02 00:00:00 19.8 11 Sudeste 18 Sudeste 0 -- -- 88
2020-07-01 23:00:00 20.4 11 Este 21 Este 0 -- -- 80
2020-07-01 22:00:00 22.2 12 Este 18 Este 0 -- -- 74
2020-07-01 21:00:00 25.9 9 Sudeste 21 Sur 0 -- -- 61
2020-07-01 20:00:00 28.2 14 Sudoeste 24 Sudoeste 0 -- -- 52
2020-07-01 19:00:00 30.8 10 Sudoeste 27 Sudoeste 0 -- -- 45
2020-07-01 18:00:00 33.1 12 Noroeste 28 Oeste 0 -- -- 28
2020-07-01 17:00:00 33.1 7 Oeste 19 Noroeste 0 -- -- 35
2020-07-01 16:00:00 32.5 9 Noroeste 19 Sudoeste 0 -- -- 34
2020-07-01 15:00:00 31 10 Sur 24 Sudoeste 0 -- -- 37
2020-07-01 14:00:00 30.6 10 Sur 30 Sudoeste 0 -- -- 36
2020-07-01 13:00:00 29.6 12 Sur 28 Sudoeste 0 -- -- 36
2020-07-01 12:00:00 29.1 11 Sur 30 Sudeste 0 -- -- 35
2020-07-01 11:00:00 27.8 14 Sur 30 Sudeste 0 -- -- 37
2020-07-01 10:00:00 26.4 13 Sur 25 Sudeste 0 -- -- 43
2020-07-01 09:00:00 23.7 14 Sudeste 21 Sudeste 0 -- -- 52
2020-07-01 08:00:00 18.2 8 Sudeste 13 Sudeste 0 -- -- 76
2020-07-01 07:00:00 14 9 Sudeste 12 Sudeste 0 -- -- 90
2020-07-01 06:00:00 13.8 6 Sudeste 9 Sudeste 0 -- -- 90
2020-07-01 05:00:00 15.7 6 Este 15 Sudeste 0 -- -- 82
2020-07-01 04:00:00 16.9 8 Sudeste 11 Sudeste 0 -- -- 81
2020-07-01 03:00:00 18.2 10 Sudeste 18 Sudeste 0 -- -- 78
2020-07-01 02:00:00 19.3 9 Este 19 Sudeste 0 -- -- 77
2020-07-01 01:00:00 18.1 9 Sudeste 13 Sudeste 0 -- -- 83
2020-07-01 00:00:00 19.5 5 Norte 20 Sudeste 0 -- -- 79
2020-06-30 23:00:00 19.4 12 Sudeste 17 Sudeste 0 -- -- 88
2020-06-30 22:00:00 19.3 0 Calma 15 Sudeste 0 -- -- 83
2020-06-30 21:00:00 21.4 9 Este 19 Sudeste 0 -- -- 74
2020-06-30 20:00:00 24.8 9 Sur 24 Sudoeste 0 -- -- 60
2020-06-30 19:00:00 26.9 12 Sur 25 Sur 0 -- -- 53
2020-06-30 18:00:00 26.9 12 Sur 33 Sur 0 -- -- 54
2020-06-30 17:00:00 26.6 20 Sur 34 Sur 0 -- -- 57
2020-06-30 16:00:00 27.2 15 Sudoeste 26 Sudoeste 0 -- -- 59
2020-06-30 15:00:00 28.1 12 Sudoeste 36 Sudoeste 0 -- -- 56
2020-06-30 14:00:00 27.5 12 Sur 23 Sudeste 0 -- -- 59
2020-06-30 13:00:00 27.2 10 Sur 18 Sur 0 -- -- 57
2020-06-30 12:00:00 27 9 Sudoeste 22 Sudeste 0 -- -- 55
2020-06-30 11:00:00 24.8 10 Sur 18 Sur 0 -- -- 67
2020-06-30 10:00:00 23.1 7 Sudoeste 13 Sur 0 -- -- 74
2020-06-30 09:00:00 21.6 3 Sudoeste 10 Sudeste 0 -- -- 83
2020-06-30 08:00:00 18.6 0 Calma 6 Este 0 -- -- 98
2020-06-30 07:00:00 16.6 4 Este 7 Nordeste 0 -- -- 100
2020-06-30 06:00:00 17.1 3 Sudeste 9 Este 0 -- -- 98
2020-06-30 05:00:00 17.8 6 Sudeste 15 Este 0 -- -- 97
2020-06-30 04:00:00 18.2 7 Sudeste 14 Sudeste 0 -- -- 96
2020-06-30 03:00:00 18.9 6 Sudeste 17 Sudeste 0 -- -- 94
2020-06-30 02:00:00 19.4 9 Sudeste 22 Sudeste 0 -- -- 92
2020-06-30 01:00:00 19.4 14 Sudeste 25 Sudeste 0 -- -- 91
2020-06-30 00:00:00 19.9 15 Sudeste 24 Sudeste 0 -- -- 90
2020-06-29 23:00:00 20.2 15 Sudeste 24 Sudeste 0 -- -- 89
2020-06-29 22:00:00 20.8 15 Sudeste 29 Sudeste 0 -- -- 88
2020-06-29 21:00:00 21.7 18 Sudeste 31 Sudeste 0 -- -- 85
2020-06-29 20:00:00 24.1 15 Sudeste 30 Sudeste 0 -- -- 75
2020-06-29 19:00:00 24.6 16 Sur 31 Sudoeste 0 -- -- 74
2020-06-29 18:00:00 25.7 19 Sur 33 Sudeste 0 -- -- 71
2020-06-29 17:00:00 27.1 17 Sur 31 Sur 0 -- -- 65
2020-06-29 16:00:00 28.8 15 Sur 30 Sudeste 0 -- -- 59
2020-06-29 15:00:00 29.4 13 Sur 24 Sur 0 -- -- 56
2020-06-29 14:00:00 29.7 10 Oeste 18 Noroeste 0 -- -- 53
2020-06-29 13:00:00 28.9 5 Noroeste 25 Sudeste 0 -- -- 54
2020-06-29 12:00:00 28.1 8 Sur 17 Sur 0 -- -- 52
2020-06-29 11:00:00 26.9 4 Este 10 Oeste 0 -- -- 56
2020-06-29 10:00:00 24.4 4 Sudoeste 9 Noroeste 0 -- -- 63
2020-06-29 09:00:00 21.7 4 Noroeste 6 Oeste 0 -- -- 74
2020-06-29 08:00:00 17.8 3 Este 11 Sudeste 0 -- -- 95
2020-06-29 07:00:00 15.1 5 Sudeste 10 Este 0 -- -- 100
2020-06-29 06:00:00 16.3 8 Sudeste 15 Sudeste 0 -- -- 100
2020-06-29 05:00:00 16.7 12 Este 17 Sudeste 0 -- -- 97
2020-06-29 04:00:00 16.5 6 Sudeste 13 Sudeste 0 -- -- 98
2020-06-29 03:00:00 17.4 10 Este 16 Sudeste 0 -- -- 98
2020-06-29 02:00:00 17.4 9 Este 16 Sudeste 0 -- -- 95
2020-06-29 01:00:00 17.8 11 Sudeste 21 Este 0 -- -- 88
2020-06-29 00:00:00 19.1 7 Este 19 Este 0 -- -- 78
2020-06-28 23:00:00 19.2 7 Sudeste 19 Este 0 -- -- 79
2020-06-28 22:00:00 20.8 13 Sudeste 20 Sudeste 0 -- -- 74
2020-06-28 21:00:00 23.7 12 Sudeste 26 Sudeste 0 -- -- 68
2020-06-28 20:00:00 25.3 15 Sur 27 Sur 0 -- -- 60
2020-06-28 19:00:00 26.7 16 Sudoeste 29 Sudoeste 0 -- -- 56
2020-06-28 18:00:00 27.3 16 Sur 30 Sur 0 -- -- 53
2020-06-28 17:00:00 28.2 16 Sudoeste 29 Sudoeste 0 -- -- 53
2020-06-28 16:00:00 28.5 16 Sudoeste 29 Sudoeste 0 -- -- 50
2020-06-28 15:00:00 29.2 12 Sur 26 Sur 0 -- -- 50
2020-06-28 14:00:00 29.1 8 Sur 22 Sudeste 0 -- -- 48
2020-06-28 13:00:00 29.8 8 Sur 23 Sur 0 -- -- 45
2020-06-28 12:00:00 28.6 9 Sur 21 Sudeste 0 -- -- 46
2020-06-28 11:00:00 27.2 9 Este 20 Sudeste 0 -- -- 50
2020-06-28 10:00:00 25 13 Sudeste 19 Sudeste 0 -- -- 53
2020-06-28 09:00:00 22.3 10 Sudeste 17 Sudeste 0 -- -- 70
2020-06-28 08:00:00 18.5 9 Sudeste 13 Sudeste 0 -- -- 90
2020-06-28 07:00:00 15.3 4 Sudeste 14 Sudeste 0 -- -- 99
2020-06-28 06:00:00 16.5 13 Sudeste 17 Sudeste 0 -- -- 98
2020-06-28 05:00:00 17 14 Este 21 Sudeste 0 -- -- 97
2020-06-28 04:00:00 16.4 15 Este 21 Sudeste 0 -- -- 99
2020-06-28 03:00:00 16.7 14 Sudeste 17 Sudeste 0 -- -- 97
2020-06-28 02:00:00 15.7 8 Sudeste 13 Este 0 -- -- 100
2020-06-28 01:00:00 15.5 8 Sudeste 14 Sudeste 0 -- -- 98
2020-06-28 00:00:00 17 11 Sudeste 15 Sudeste 0 -- -- 93
2020-06-27 23:00:00 17.6 6 Sudeste 16 Sudeste 0 -- -- 91
2020-06-27 22:00:00 19.8 10 Sudeste 19 Sudeste 0 -- -- 84
2020-06-27 21:00:00 23.1 12 Sudeste 23 Sudoeste 0 -- -- 70
2020-06-27 20:00:00 25.4 12 Sur 26 Sudoeste 0 -- -- 63
2020-06-27 19:00:00 27.1 12 Sudoeste 22 Sudoeste 0 -- -- 57
2020-06-27 18:00:00 27.5 12 Sur 26 Sur 0 -- -- 54
2020-06-27 17:00:00 28.3 14 Sudoeste 26 Oeste 0 -- -- 51
2020-06-27 16:00:00 28.8 11 Sur 26 Sudeste 0 -- -- 45
2020-06-27 15:00:00 30 7 Sur 21 Sudoeste 0 -- -- 40
2020-06-27 14:00:00 29.1 8 Oeste 19 Oeste 0 -- -- 37
2020-06-27 13:00:00 28 9 Sudoeste 21 Sur 0 -- -- 38
2020-06-27 12:00:00 28 6 Sur 20 Sudeste 0 -- -- 38
2020-06-27 11:00:00 27.2 5 Nordeste 17 Sudeste 0 -- -- 40
2020-06-27 10:00:00 25.1 9 Sudeste 16 Sudeste 0 -- -- 44
2020-06-27 09:00:00 22.1 9 Sudeste 12 Sudeste 0 -- -- 58
2020-06-27 08:00:00 16 5 Sudeste 12 Sudeste 0 -- -- 85
2020-06-27 07:00:00 11.6 9 Sudeste 12 Sudeste 0 -- -- 96
2020-06-27 06:00:00 11.7 6 Sudeste 10 Sudeste 0 -- -- 93
2020-06-27 05:00:00 13.3 3 Este 10 Sudeste 0 -- -- 87
2020-06-27 04:00:00 13.3 4 Sudeste 6 Sudeste 0 -- -- 92
2020-06-27 03:00:00 13.9 0 Calma 8 Sudeste 0 -- -- 91
2020-06-27 02:00:00 15 4 Sudeste 9 Sudeste 0 -- -- 89
2020-06-27 01:00:00 15.4 8 Sudeste 10 Sudeste 0 -- -- 88
2020-06-27 00:00:00 16 3 Sudeste 11 Sudeste 0 -- -- 86
2020-06-26 23:00:00 17.7 4 Este 8 Norte 0 -- -- 79
2020-06-26 22:00:00 19 4 Sudeste 14 Sudeste 0 -- -- 72
2020-06-26 21:00:00 21.2 5 Sudeste 17 Sudeste 0 -- -- 62
2020-06-26 20:00:00 23.6 9 Sudeste 23 Sudeste 0 -- -- 50
2020-06-26 19:00:00 25.9 15 Sur 41 Sudeste 0 -- -- 43
2020-06-26 18:00:00 27.2 18 Sur 33 Sudeste 0 -- -- 41
2020-06-26 17:00:00 28 19 Sudeste 33 Sur 0 -- -- 36
2020-06-26 16:00:00 28.5 19 Sudeste 39 Sudeste 0 -- -- 38
2020-06-26 15:00:00 28.6 13 Sur 36 Sudeste 0 -- -- 37
2020-06-26 14:00:00 28.2 15 Sur 30 Sudeste 0 -- -- 38
2020-06-26 13:00:00 28.4 15 Sudeste 30 Sudeste 0 -- -- 36
2020-06-26 12:00:00 27.8 13 Sudeste 24 Sudeste 0 -- -- 37
2020-06-26 11:00:00 27.1 8 Sur 19 Sudoeste 0 -- -- 37
2020-06-26 10:00:00 25.9 11 Sur 19 Sur 0 -- -- 34
2020-06-26 09:00:00 23.5 5 Este 7 Este 0 -- -- 50
2020-06-26 08:00:00 15.9 3 Este 9 Sudeste 0 -- -- 85
2020-06-26 07:00:00 11.7 6 Sudeste 9 Sudeste 0 -- -- 96
2020-06-26 06:00:00 11.9 3 Este 9 Sudeste 0 -- -- 93
2020-06-26 05:00:00 12.9 4 Sudeste 8 Este 0 -- -- 91
2020-06-26 04:00:00 13.4 4 Sudeste 9 Sudeste 0 -- -- 89
2020-06-26 03:00:00 13.8 6 Sudeste 13 Sudeste 0 -- -- 86
2020-06-26 02:00:00 14.4 10 Sudeste 12 Sudeste 0 -- -- 86
2020-06-26 01:00:00 15.7 6 Sudeste 9 Sudeste 0 -- -- 81
2020-06-26 00:00:00 16.3 5 Este 9 Norte 0 -- -- 77
2020-06-25 23:00:00 18.2 5 Noroeste 12 Norte 0 -- -- 67
2020-06-25 22:00:00 20.1 6 Sudeste 21 Este 0 -- -- 56
2020-06-25 21:00:00 21.3 13 Sudeste 28 Sudeste 0 -- -- 52
2020-06-25 20:00:00 23.3 18 Sudeste 36 Sudeste 0 -- -- 46
2020-06-25 19:00:00 25.6 22 Sudeste 34 Sudeste 0 -- -- 39
2020-06-25 18:00:00 27.4 19 Sudeste 28 Sudeste 0 -- -- 41
2020-06-25 17:00:00 28 18 Sur 28 Sur 0 -- -- 44
2020-06-25 16:00:00 29 15 Sur 28 Sudeste 0 -- -- 38
2020-06-25 15:00:00 28.9 14 Sur 25 Sudoeste 0 -- -- 44
2020-06-25 14:00:00 29.3 14 Sur 25 Sur 0 -- -- 44
2020-06-25 13:00:00 30 10 Sudoeste 21 Sudoeste 0 -- -- 43
2020-06-25 12:00:00 28.9 9 Norte 15 Noroeste 0 -- -- 40
2020-06-25 11:00:00 27.7 6 Oeste 14 Noroeste 0 -- -- 44
2020-06-25 10:00:00 25.5 7 Oeste 11 Oeste 0 -- -- 48
2020-06-25 09:00:00 22.4 3 Oeste 4 Noroeste 0 -- -- 58
2020-06-25 08:00:00 17.4 2 Este 5 Sudeste 0 -- -- 84
2020-06-25 07:00:00 14.5 2 Norte 4 Nordeste 0 -- -- 93
2020-06-25 06:00:00 15.2 3 Este 5 Sudeste 0 -- -- 91
2020-06-25 05:00:00 15.6 5 Este 7 Sudeste 0 -- -- 88
2020-06-25 04:00:00 16.5 2 Sudeste 17 Este 0 -- -- 81
2020-06-25 03:00:00 17.4 12 Este 18 Este 0 -- -- 75
2020-06-25 02:00:00 17.6 10 Este 22 Este 0 -- -- 85
2020-06-25 01:00:00 17.9 15 Este 21 Sudeste 0 -- -- 68
2020-06-25 00:00:00 16.8 8 Sudeste 12 Sudeste 0 -- -- 75
2020-06-24 23:00:00 17.6 5 Sudeste 8 Sudeste 0 -- -- 75
2020-06-24 22:00:00 19.9 4 Noroeste 29 Oeste 0 -- -- 64
2020-06-24 21:00:00 20.8 5 Noroeste 14 Oeste 0 -- -- 72
2020-06-24 20:00:00 22.9 6 Sudeste 23 Sur 0 -- -- 61
2020-06-24 19:00:00 23.6 14 Sur 33 Sur 0 -- -- 54
2020-06-24 18:00:00 25.2 17 Sur 32 Sudeste 0 -- -- 45
2020-06-24 17:00:00 25.7 18 Sur 39 Sudeste 0 -- -- 49
2020-06-24 16:00:00 25.8 16 Sur 35 Sur 0 -- -- 47
2020-06-24 15:00:00 26 17 Sur 36 Sudeste 0 -- -- 49
2020-06-24 14:00:00 26.6 16 Sur 33 Sudeste 0 -- -- 51
2020-06-24 13:00:00 26.5 15 Sur 27 Sudeste 0 -- -- 50
2020-06-24 12:00:00 26.5 8 Sur 18 Sudeste 0 -- -- 53
2020-06-24 11:00:00 25 8 Sudeste 22 Sur 0 -- -- 55
2020-06-24 10:00:00 22.9 12 Sur 28 Sur 0 -- -- 60
2020-06-24 09:00:00 21.2 15 Sur 32 Sudoeste 0 -- -- 64
2020-06-24 08:00:00 17.9 7 Sudeste 16 Sudeste 0 -- -- 76
2020-06-24 07:00:00 12.6 9 Sudeste 13 Sudeste 0 -- -- 95
2020-06-24 06:00:00 12 6 Sudeste 9 Sudeste 0 -- -- 96
2020-06-24 05:00:00 12.8 6 Sudeste 14 Sudeste 0 -- -- 92
2020-06-24 04:00:00 15.4 8 Este 13 Este 0 -- -- 81
2020-06-24 03:00:00 15.4 5 Sudeste 13 Sudeste 0 -- -- 81
2020-06-24 02:00:00 15.2 8 Sudeste 15 Sudeste 0 -- -- 82
2020-06-24 01:00:00 14.6 10 Sudeste 18 Sudeste 0 -- -- 86
2020-06-24 00:00:00 16.1 13 Sudeste 17 Sudeste 0 -- -- 81
2020-06-23 23:00:00 17.1 13 Sudeste 22 Este 0 -- -- 77
2020-06-23 22:00:00 17.9 15 Este 26 Este 0 -- -- 72
2020-06-23 21:00:00 19.9 14 Sudeste 23 Sudeste 0 -- -- 65
2020-06-23 20:00:00 23.2 16 Sudeste 31 Sudoeste 0 -- -- 54
2020-06-23 19:00:00 24.6 15 Sur 33 Sur 0 -- -- 52
2020-06-23 18:00:00 25 17 Sudoeste 34 Sudoeste 0 -- -- 51
2020-06-23 17:00:00 25.4 19 Sur 33 Sudoeste 0 -- -- 51
2020-06-23 16:00:00 26 17 Sudoeste 33 Sudoeste 0 -- -- 53
2020-06-23 15:00:00 26.3 17 Sudoeste 27 Sudoeste 0 -- -- 53
2020-06-23 14:00:00 26.3 14 Sur 29 Sudoeste 0 -- -- 56
2020-06-23 13:00:00 26.7 13 Sur 24 Sudeste 0 -- -- 54
2020-06-23 12:00:00 26.7 9 Sudoeste 23 Oeste 0 -- -- 46
2020-06-23 11:00:00 25.8 8 Sur 28 Oeste 0 -- -- 54
2020-06-23 10:00:00 24.2 4 Norte 16 Sudeste 0 -- -- 63
2020-06-23 09:00:00 21 9 Sudeste 13 Sudeste 0 -- -- 77
2020-06-23 08:00:00 17.5 9 Este 13 Este 0 -- -- 96
2020-06-23 07:00:00 14 5 Sudeste 9 Sudeste 0 -- -- 100
2020-06-23 06:00:00 14.5 5 Sudeste 14 Este 0 -- -- 98
2020-06-23 05:00:00 15.9 10 Este 17 Este 0 -- -- 99
2020-06-23 04:00:00 16.6 9 Este 20 Este 0 -- -- 98
2020-06-23 03:00:00 16 10 Este 20 Este 0 -- -- 99
2020-06-23 02:00:00 16 16 Este 22 Sudeste 0 -- -- 97
2020-06-23 01:00:00 16 14 Sudeste 21 Sudeste 0 -- -- 97
2020-06-23 00:00:00 16.2 15 Sudeste 22 Sudeste 0 -- -- 90
2020-06-22 23:00:00 16.9 16 Sudeste 21 Sudeste 0 -- -- 81
2020-06-22 22:00:00 18.2 16 Este 22 Sudeste 0 -- -- 76
2020-06-22 21:00:00 21.5 11 Sudeste 26 Sur 0 -- -- 63
2020-06-22 20:00:00 23.2 15 Sur 25 Sudoeste 0 -- -- 59
2020-06-22 19:00:00 24.9 15 Sudoeste 29 Sudoeste 0 -- -- 58
2020-06-22 18:00:00 27.1 14 Sudoeste 25 Sudoeste 0 -- -- 53
2020-06-22 17:00:00 27.9 11 Sudoeste 24 Sudoeste 0 -- -- 48
2020-06-22 16:00:00 28.6 12 Noroeste 26 Noroeste 0 -- -- 43
2020-06-22 15:00:00 27.9 12 Noroeste 22 Noroeste 0 -- -- 46
2020-06-22 14:00:00 26.8 12 Noroeste 20 Oeste 0 -- -- 51
2020-06-22 13:00:00 25.5 9 Noroeste 18 Oeste 0 -- -- 53
2020-06-22 12:00:00 24 12 Oeste 22 Oeste 0 -- -- 53
2020-06-22 11:00:00 22.7 10 Oeste 19 Oeste 0 -- -- 57
2020-06-22 10:00:00 20 13 Noroeste 19 Noroeste 0 -- -- 65
2020-06-22 09:00:00 17.5 10 Oeste 16 Noroeste 0 -- -- 75
2020-06-22 08:00:00 14 6 Noroeste 13 Noroeste 0 -- -- 100
2020-06-22 07:00:00 10.5 3 Sudeste 8 Sudeste 0 -- -- 100
2020-06-22 06:00:00 10.6 5 Sudeste 7 Sudeste 0 -- -- 100
2020-06-22 05:00:00 11.2 4 Sudeste 6 Sudeste 0 -- -- 100
2020-06-22 04:00:00 11.8 4 Sudeste 8 Sudeste 0 -- -- 100
2020-06-22 03:00:00 12.5 5 Sudeste 9 Sudeste 0 -- -- 100
2020-06-22 02:00:00 13.3 3 Sudeste 9 Sudeste 0 -- -- 100
2020-06-22 01:00:00 14.4 3 Sudeste 10 Sudeste 0 -- -- 98
2020-06-22 00:00:00 16.1 6 Sudeste 18 Sudeste 0 -- -- 97
2020-06-21 23:00:00 18.2 11 Sudeste 17 Sudeste 0 -- -- 91
2020-06-21 22:00:00 19 6 Sudeste 12 Sudeste 0 -- -- 79
2020-06-21 21:00:00 26.6 0 Calma 29 Noroeste 0 -- -- 41
2020-06-21 20:00:00 28.6 19 Noroeste 34 Oeste 0 -- -- 33
2020-06-21 19:00:00 28.8 21 Noroeste 36 Oeste 0 -- -- 38
2020-06-21 18:00:00 28.5 22 Oeste 36 Noroeste 0 -- -- 39
2020-06-21 17:00:00 28 24 Oeste 38 Oeste 0 -- -- 43
2020-06-21 16:00:00 27.6 21 Noroeste 37 Noroeste 0 -- -- 47
2020-06-21 15:00:00 27.3 19 Oeste 34 Oeste 0 -- -- 49
2020-06-21 14:00:00 26.5 17 Oeste 30 Noroeste 0 -- -- 47
2020-06-21 13:00:00 25.8 11 Oeste 23 Oeste 0 -- -- 54
2020-06-21 12:00:00 24.3 12 Oeste 20 Oeste 0 -- -- 64
2020-06-21 11:00:00 23 12 Noroeste 18 Noroeste 0 -- -- 70
2020-06-21 10:00:00 21.4 12 Noroeste 19 Oeste 0 -- -- 78
2020-06-21 09:00:00 19.8 4 Noroeste 8 Norte 0 -- -- 84
2020-06-21 08:00:00 16.2 0 Calma 6 Sudeste 0 -- -- 100
2020-06-21 07:00:00 13.4 5 Sudeste 6 Sudeste 0 -- -- 100
2020-06-21 06:00:00 15 4 Este 8 Sudeste 0 -- -- 100
2020-06-21 05:00:00 16.2 6 Sudeste 9 Sudeste 0 -- -- 100
2020-06-21 04:00:00 16.8 6 Sudeste 13 Sudeste 0 -- -- 99
2020-06-21 03:00:00 17.3 9 Sudeste 14 Sudeste 0 -- -- 98
2020-06-21 02:00:00 17.1 9 Sudeste 15 Sudeste 0 -- -- 98
2020-06-21 01:00:00 17.4 12 Sudeste 19 Sudeste 0 -- -- 97
2020-06-21 00:00:00 17.7 14 Sudeste 22 Sudeste 0 -- -- 97
2020-06-20 23:00:00 17.3 11 Sudeste 19 Sudeste 0 -- -- 98
2020-06-20 22:00:00 17.9 8 Sudeste 18 Sudeste 0 -- -- 93
2020-06-20 21:00:00 20.8 12 Sudeste 22 Sur 0 -- -- 82
2020-06-20 20:00:00 25.1 9 Sudoeste 17 Oeste 0 -- -- 66
2020-06-20 19:00:00 25.7 8 Sudoeste 23 Sur 0 -- -- 63
2020-06-20 18:00:00 24.9 14 Sur 23 Sur 0 -- -- 67
2020-06-20 17:00:00 25.7 13 Sudoeste 25 Sur 0 -- -- 63
2020-06-20 16:00:00 26.6 13 Sudoeste 24 Sudoeste 0 -- -- 57
2020-06-20 15:00:00 25.6 9 Oeste 22 Oeste 0 -- -- 59
2020-06-20 14:00:00 26.2 11 Noroeste 23 Noroeste 0 -- -- 50
2020-06-20 13:00:00 25.8 10 Noroeste 18 Noroeste 0 -- -- 53
2020-06-20 12:00:00 24.3 11 Noroeste 18 Noroeste 0 -- -- 58
2020-06-20 11:00:00 23 8 Noroeste 16 Oeste 0 -- -- 64
2020-06-20 10:00:00 22.1 3 Sur 10 Sudeste 0 -- -- 67
2020-06-20 09:00:00 19.7 7 Sudeste 13 Este 0 -- -- 77
2020-06-20 08:00:00 15 6 Este 10 Este 0 -- -- 100
2020-06-20 07:00:00 11.9 8 Sudeste 11 Sudeste 0 -- -- 100
2020-06-20 06:00:00 12.6 6 Sudeste 12 Este 0 -- -- 99
2020-06-20 05:00:00 14.7 9 Este 13 Sudeste 0 -- -- 97
2020-06-20 04:00:00 15.3 8 Sudeste 14 Sudeste 0 -- -- 95
2020-06-20 03:00:00 15.5 9 Sudeste 17 Este 0 -- -- 96
2020-06-20 02:00:00 15.1 12 Sudeste 18 Sudeste 0 -- -- 97
2020-06-20 01:00:00 14.2 9 Sudeste 19 Este 0 -- -- 98
2020-06-20 00:00:00 13.8 14 Este 20 Este 0 -- -- 98
2020-06-19 23:00:00 14.6 12 Este 23 Este 0 -- -- 96
2020-06-19 22:00:00 14.9 12 Este 24 Este 0 -- -- 94
2020-06-19 21:00:00 17.3 14 Sudeste 27 Sudeste 0 -- -- 83
2020-06-19 20:00:00 18.5 13 Sur 26 Sur 0 -- -- 78
2020-06-19 19:00:00 19.5 14 Sur 30 Sur 0 -- -- 73
2020-06-19 18:00:00 20.8 15 Sur 33 Sudoeste 0 -- -- 68
2020-06-19 17:00:00 21.5 13 Sur 22 Sudoeste 0 -- -- 64
2020-06-19 16:00:00 22.8 11 Sur 20 Sudoeste 0 -- -- 57
2020-06-19 15:00:00 21.3 11 Sur 27 Sudeste 0 -- -- 59
2020-06-19 14:00:00 20.2 8 Sur 17 Sudoeste 0 -- -- 58
2020-06-19 13:00:00 17.2 10 Sur 18 Sudeste 0 -- -- 67
2020-06-19 12:00:00 17.3 8 Sur 13 Sur 0 -- -- 67
2020-06-19 11:00:00 16.7 7 Sudeste 17 Sudeste 0 -- -- 68
2020-06-19 10:00:00 16.9 12 Sudeste 25 Sudeste 0 -- -- 65
2020-06-19 09:00:00 17.4 12 Sudeste 19 Sudeste 0 -- -- 65
2020-06-19 08:00:00 14.5 6 Sudeste 11 Sudeste 0 -- -- 81
2020-06-19 07:00:00 12.6 8 Este 13 Este 0 -- -- 91
2020-06-19 06:00:00 12.3 11 Este 14 Este 0 -- -- 94
2020-06-19 05:00:00 12.4 8 Sudeste 14 Sudeste 0 -- -- 93
2020-06-19 04:00:00 12.7 8 Sudeste 11 Sudeste 0 -- -- 97
2020-06-19 03:00:00 12.8 8 Sudeste 12 Sudeste 0 -- -- 100
2020-06-19 02:00:00 12.5 9 Sudeste 12 Este 0 -- -- 99
2020-06-19 01:00:00 14.3 8 Sudeste 20 Sudeste 0 -- -- 94
2020-06-19 00:00:00 14.9 11 Sudeste 21 Sudeste 0 -- -- 94
2020-06-18 23:00:00 15 14 Sudeste 23 Sudeste 0 -- -- 94
2020-06-18 22:00:00 14.7 8 Este 18 Sudeste 0 -- -- 95
2020-06-18 21:00:00 17.2 12 Sudeste 24 Sur 0 -- -- 83
2020-06-18 20:00:00 19.3 10 Sur 25 Sudoeste 0 -- -- 72
2020-06-18 19:00:00 20.4 14 Sur 25 Sur 0 -- -- 69
2020-06-18 18:00:00 19.9 12 Sudoeste 23 Sur 0 -- -- 69
2020-06-18 17:00:00 22.8 9 Sudoeste 19 Oeste 0 -- -- 58
2020-06-18 16:00:00 22.9 9 Noroeste 17 Oeste 0 -- -- 57
2020-06-18 15:00:00 21.2 9 Noroeste 23 Oeste 0 -- -- 60
2020-06-18 14:00:00 20.3 11 Noroeste 24 Noroeste 0 -- -- 61
2020-06-18 13:00:00 19 15 Oeste 24 Noroeste 0 -- -- 66
2020-06-18 12:00:00 17.3 14 Oeste 22 Noroeste 0 -- -- 70
2020-06-18 11:00:00 15 14 Noroeste 23 Sudeste 0.8 -- -- 100
2020-06-18 10:00:00 12.5 9 Sudeste 17 Oeste 0.8 -- -- 100
2020-06-18 09:00:00 11.7 7 Norte 18 Noroeste 11.2 -- -- 100
2020-06-18 08:00:00 12.6 3 Este 9 Sur 0.8 -- -- 98
2020-06-18 07:00:00 12.8 5 Sudeste 7 Este 0.2 -- -- 100
2020-06-18 06:00:00 13 4 Este 10 Sudeste 1.8 -- -- 99
2020-06-18 05:00:00 12.5 9 Sudeste 13 Sudeste 0 -- -- 100
2020-06-18 04:00:00 10.8 5 Sudeste 10 Sudeste 0 -- -- 100
2020-06-18 03:00:00 10.3 5 Sudeste 9 Sudeste 0 -- -- 100
2020-06-18 02:00:00 10.1 8 Sudeste 13 Sudeste 0 -- -- 99
2020-06-18 01:00:00 10.5 7 Sudeste 18 Sudeste 0 -- -- 94
2020-06-18 00:00:00 13.9 9 Sur 20 Sudoeste 0 -- -- 83
2020-06-17 23:00:00 12.2 10 Sudeste 15 Sur 0 -- -- 92
2020-06-17 22:00:00 14.9 7 Sur 21 Sudoeste 0 -- -- 80
2020-06-17 21:00:00 17.7 12 Sudoeste 20 Sur 0 -- -- 70
2020-06-17 20:00:00 19.3 12 Sur 20 Noroeste 0 -- -- 62
2020-06-17 19:00:00 20.2 6 Oeste 22 Oeste 0 -- -- 49
2020-06-17 18:00:00 20.4 12 Oeste 30 Noroeste 0 -- -- 48
2020-06-17 17:00:00 20.9 18 Oeste 27 Noroeste 0 -- -- 49
2020-06-17 16:00:00 20.9 19 Oeste 32 Noroeste 0 -- -- 53
2020-06-17 15:00:00 20.9 18 Oeste 33 Oeste 0 -- -- 52
2020-06-17 14:00:00 19.8 19 Oeste 32 Noroeste 0 -- -- 51
2020-06-17 13:00:00 17.4 19 Oeste 30 Oeste 0 -- -- 62
2020-06-17 12:00:00 15.6 11 Noroeste 22 Noroeste 0 -- -- 74
2020-06-17 11:00:00 14.2 17 Oeste 26 Oeste 0 -- -- 78
2020-06-17 10:00:00 13.7 13 Noroeste 24 Noroeste 0 -- -- 81
2020-06-17 09:00:00 13.2 16 Noroeste 21 Noroeste 0 -- -- 85
2020-06-17 08:00:00 12 12 Noroeste 18 Oeste 0 -- -- 97
2020-06-17 07:00:00 11.4 4 Oeste 11 Noroeste 0 -- -- 100
2020-06-17 06:00:00 10.7 3 Noroeste 8 Noroeste 0 -- -- 100
2020-06-17 05:00:00 9.7 2 Nordeste 15 Noroeste 0 -- -- 100
2020-06-17 04:00:00 9.8 12 Noroeste 15 Noroeste 0 -- -- 100
2020-06-17 03:00:00 8.8 3 Norte 5 Norte 0 -- -- 100
2020-06-17 02:00:00 9 0 Calma 3 Norte 0 -- -- 100
2020-06-17 01:00:00 10 0 Calma 5 Sudeste 0 -- -- 100
2020-06-17 00:00:00 9.8 4 Sudeste 7 Norte 0 -- -- 100
2020-06-16 23:00:00 10.8 4 Nordeste 6 Nordeste 0 -- -- 98
2020-06-16 22:00:00 13.3 3 Norte 23 Noroeste 0.2 -- -- 96
2020-06-16 21:00:00 15.1 16 Noroeste 26 Noroeste 0 -- -- 91
2020-06-16 20:00:00 16.4 3 Oeste 19 Oeste 0 -- -- 83
2020-06-16 19:00:00 20 9 Noroeste 21 Oeste 0 -- -- 64
2020-06-16 18:00:00 18.4 14 Noroeste 20 Oeste 0 -- -- 73
2020-06-16 17:00:00 17.5 12 Oeste 23 Oeste 0 -- -- 79
2020-06-16 16:00:00 16.9 16 Noroeste 23 Oeste 0 -- -- 82
2020-06-16 15:00:00 15.3 12 Noroeste 18 Noroeste 3.2 -- -- 90
2020-06-16 14:00:00 13.5 6 Noroeste 17 Oeste 2.2 -- -- 97
2020-06-16 13:00:00 14.5 6 Noroeste 9 Noroeste 1.6 -- -- 92
2020-06-16 12:00:00 14.7 4 Noroeste 10 Noroeste 1 -- -- 92
2020-06-16 11:00:00 14.1 8 Noroeste 13 Oeste 2.4 -- -- 97
2020-06-16 10:00:00 14 4 Noroeste 9 Oeste 1.8 -- -- 98
2020-06-16 09:00:00 13.9 2 Norte 11 Noroeste 0.6 -- -- 97
2020-06-16 08:00:00 13.7 2 Noroeste 9 Noroeste 1 -- -- 98
2020-06-16 07:00:00 13.5 4 Noroeste 12 Sudoeste 2.6 -- -- 99
2020-06-16 06:00:00 14.4 3 Sudeste 8 Nordeste 1.4 -- -- 100
2020-06-16 05:00:00 14.7 2 Oeste 8 Nordeste 0.4 -- -- 100
2020-06-16 04:00:00 14.5 3 Sudeste 10 Este 0 -- -- 100
2020-06-16 03:00:00 13.8 0 Calma 9 Nordeste 0.2 -- -- 98
2020-06-16 02:00:00 14.9 4 Este 12 Sudeste 0.4 -- -- 96
2020-06-16 01:00:00 15.2 8 Sudeste 10 Sudeste 0 -- -- 94
2020-06-16 00:00:00 15.6 3 Este 9 Sudeste 0 -- -- 92
2020-06-15 23:00:00 15.9 6 Sudeste 12 Este 0 -- -- 91
2020-06-15 22:00:00 16.8 6 Este 13 Sudoeste 0 -- -- 88
2020-06-15 21:00:00 20.8 9 Sudoeste 15 Sudoeste 0 -- -- 68
2020-06-15 20:00:00 22.7 8 Sur 22 Sur 0 -- -- 62
2020-06-15 19:00:00 24.1 10 Sudoeste 35 Noroeste 0 -- -- 55
2020-06-15 18:00:00 24.5 24 Noroeste 38 Noroeste 0 -- -- 38
2020-06-15 17:00:00 24.8 19 Oeste 38 Noroeste 0 -- -- 41
2020-06-15 16:00:00 24.9 19 Oeste 36 Oeste 0 -- -- 38
2020-06-15 15:00:00 25.3 20 Oeste 32 Oeste 0 -- -- 36
2020-06-15 14:00:00 23.9 18 Noroeste 32 Oeste 0 -- -- 39
2020-06-15 13:00:00 23.3 16 Oeste 30 Oeste 0 -- -- 41
2020-06-15 12:00:00 22.5 15 Oeste 27 Noroeste 0 -- -- 44
2020-06-15 11:00:00 20.3 14 Noroeste 22 Noroeste 0 -- -- 48
2020-06-15 10:00:00 19.4 9 Noroeste 18 Noroeste 0 -- -- 60
2020-06-15 09:00:00 18.7 7 Noroeste 10 Noroeste 0 -- -- 65
2020-06-15 08:00:00 13.5 3 Sudeste 6 Sudeste 0 -- -- 92
2020-06-15 07:00:00 9.4 3 Sudeste 6 Sudeste 0 -- -- 99
2020-06-15 06:00:00 10.2 3 Sudeste 6 Sudeste 0 -- -- 98
2020-06-15 05:00:00 11.3 5 Sudeste 7 Sudeste 0 -- -- 97
2020-06-15 04:00:00 12.7 3 Este 4 Sudeste 0 -- -- 96
2020-06-15 03:00:00 13.1 2 Este 5 Sudeste 0 -- -- 94
2020-06-15 02:00:00 13.1 3 Sudeste 5 Sudeste 0 -- -- 94
2020-06-15 01:00:00 13.1 3 Sudeste 9 Sudeste 0 -- -- 92
2020-06-15 00:00:00 13.2 5 Sudeste 9 Sudeste 0 -- -- 90
2020-06-14 23:00:00 13.1 6 Sudeste 11 Este 0 -- -- 89
2020-06-14 22:00:00 14.3 5 Sudeste 12 Sudeste 0 -- -- 83
2020-06-14 21:00:00 17.8 10 Sudoeste 21 Sudoeste 0 -- -- 65
2020-06-14 20:00:00 20.8 10 Sudoeste 24 Sudoeste 0 -- -- 50
2020-06-14 19:00:00 20.4 12 Sur 24 Sudoeste 0 -- -- 58
2020-06-14 18:00:00 22.2 13 Sudoeste 26 Sudoeste 0 -- -- 49
2020-06-14 17:00:00 22.7 15 Sur 28 Sudoeste 0 -- -- 49
2020-06-14 16:00:00 21 12 Sur 28 Sudoeste 0 -- -- 55
2020-06-14 15:00:00 23.7 9 Oeste 26 Sur 0 -- -- 47
2020-06-14 14:00:00 23.2 8 Sudoeste 21 Noroeste 0 -- -- 45
2020-06-14 13:00:00 23.4 6 Noroeste 24 Noroeste 0 -- -- 37
2020-06-14 12:00:00 22.2 12 Noroeste 23 Noroeste 0 -- -- 42
2020-06-14 11:00:00 21 13 Noroeste 19 Noroeste 0 -- -- 43
2020-06-14 10:00:00 19.7 10 Noroeste 17 Noroeste 0 -- -- 49
2020-06-14 09:00:00 16.8 4 Noroeste 6 Noroeste 0 -- -- 62
2020-06-14 08:00:00 9.7 4 Sudeste 6 Sudeste 0 -- -- 100
2020-06-14 07:00:00 5.1 4 Sudeste 8 Sudeste 0 -- -- 100
2020-06-14 06:00:00 4.8 4 Sudeste 8 Sudeste 0 -- -- 100
2020-06-14 05:00:00 5.2 5 Sudeste 8 Sudeste 0 -- -- 100
2020-06-14 04:00:00 5.7 5 Sudeste 9 Sudeste 0 -- -- 99
2020-06-14 03:00:00 6.1 5 Sudeste 8 Sudeste 0 -- -- 98
2020-06-14 02:00:00 6.4 4 Este 8 Sudeste 0 -- -- 98
2020-06-14 01:00:00 6.8 4 Este 8 Sudeste 0 -- -- 96
2020-06-14 00:00:00 8 2 Sudeste 8 Sudeste 0 -- -- 93
2020-06-13 23:00:00 9.7 5 Sudeste 9 Este 0 -- -- 86
2020-06-13 22:00:00 12.5 5 Sudeste 13 Noroeste 0 -- -- 74
2020-06-13 21:00:00 19.4 12 Noroeste 35 Oeste 0 -- -- 44
2020-06-13 20:00:00 20.4 23 Noroeste 40 Oeste 0 -- -- 40
2020-06-13 19:00:00 20.1 24 Noroeste 44 Oeste 0 -- -- 43
2020-06-13 18:00:00 20.8 22 Noroeste 42 Noroeste 0 -- -- 42
2020-06-13 17:00:00 21.1 30 Oeste 45 Oeste 0 -- -- 40
2020-06-13 16:00:00 20.9 26 Noroeste 43 Noroeste 0 -- -- 43
2020-06-13 15:00:00 20.8 25 Noroeste 42 Oeste 0 -- -- 43
2020-06-13 14:00:00 19.9 24 Noroeste 40 Oeste 0 -- -- 48
2020-06-13 13:00:00 18.9 25 Oeste 40 Oeste 0 -- -- 52
2020-06-13 12:00:00 18 21 Noroeste 37 Oeste 0 -- -- 57
2020-06-13 11:00:00 16.8 24 Noroeste 39 Noroeste 0 -- -- 60
2020-06-13 10:00:00 15.6 24 Noroeste 41 Oeste 0 -- -- 63
2020-06-13 09:00:00 14.2 29 Noroeste 40 Noroeste 0 -- -- 68
2020-06-13 08:00:00 12.4 18 Noroeste 30 Noroeste 0 -- -- 79
2020-06-13 07:00:00 9.6 13 Noroeste 17 Noroeste 0 -- -- 94
2020-06-13 06:00:00 7.3 0 Calma 5 Sudeste 0 -- -- 99
2020-06-13 05:00:00 8.1 3 Norte 11 Noroeste 0 -- -- 97
2020-06-13 04:00:00 10.4 9 Noroeste 13 Oeste 0 -- -- 90
2020-06-13 03:00:00 10.4 4 Noroeste 16 Noroeste 0 -- -- 95
2020-06-13 02:00:00 10.9 10 Sudeste 12 Sudeste 0 -- -- 96
2020-06-13 01:00:00 11.7 8 Sudeste 15 Sudeste 0 -- -- 92
2020-06-13 00:00:00 12.5 4 Sudeste 6 Sudeste 0 -- -- 93
2020-06-12 23:00:00 13.7 4 Sudeste 12 Oeste 0.2 -- -- 89
2020-06-12 22:00:00 13.9 3 Sudeste 9 Sur 0 -- -- 81
2020-06-12 21:00:00 17.7 2 Sudoeste 15 Noroeste 0 -- -- 56
2020-06-12 20:00:00 20.5 9 Noroeste 22 Noroeste 0 -- -- 42
2020-06-12 19:00:00 21.5 11 Oeste 27 Noroeste 0 -- -- 41
2020-06-12 18:00:00 20.9 17 Noroeste 28 Noroeste 0 -- -- 41
2020-06-12 17:00:00 20.6 18 Noroeste 33 Oeste 0 -- -- 42
2020-06-12 16:00:00 20.5 22 Noroeste 36 Oeste 0 -- -- 41
2020-06-12 15:00:00 19.9 24 Noroeste 36 Noroeste 0 -- -- 46
2020-06-12 14:00:00 19.7 15 Noroeste 35 Oeste 0 -- -- 48
2020-06-12 13:00:00 19.3 23 Noroeste 40 Noroeste 0 -- -- 49
2020-06-12 12:00:00 18.6 21 Noroeste 36 Noroeste 0 -- -- 52
2020-06-12 11:00:00 17.3 17 Noroeste 36 Noroeste 0 -- -- 62
2020-06-12 10:00:00 15.9 23 Noroeste 31 Noroeste 0 -- -- 74
2020-06-12 09:00:00 14.6 17 Noroeste 24 Noroeste 0 -- -- 86
2020-06-12 08:00:00 12.8 17 Noroeste 25 Noroeste 0 -- -- 98
2020-06-12 07:00:00 12.8 18 Noroeste 25 Oeste 0 -- -- 100
2020-06-12 06:00:00 12.2 4 Noroeste 12 Noroeste 0 -- -- 100
2020-06-12 05:00:00 13.2 4 Sudeste 20 Oeste 0 -- -- 98
2020-06-12 04:00:00 14.3 15 Noroeste 38 Oeste 2.2 -- -- 98
2020-06-12 03:00:00 14.8 4 Sudeste 15 Sudeste 0 -- -- 97
2020-06-12 02:00:00 14.5 10 Sudeste 23 Sudeste 0 -- -- 95
2020-06-12 01:00:00 14.6 11 Sudeste 22 Sudeste 0 -- -- 92
2020-06-12 00:00:00 14.9 13 Sudeste 36 Sudeste 0 -- -- 81
2020-06-11 23:00:00 15.2 14 Sudeste 29 Sudeste 0 -- -- 74
2020-06-11 22:00:00 14.7 12 Sudeste 25 Sudeste 0 -- -- 88
2020-06-11 21:00:00 17 17 Sudeste 29 Sudeste 0 -- -- 84
2020-06-11 20:00:00 17.3 19 Sudeste 30 Sudeste 0 -- -- 83
2020-06-11 19:00:00 18.6 16 Sudeste 27 Sudeste 0 -- -- 76
2020-06-11 18:00:00 19.7 15 Sudeste 27 Sudeste 0 -- -- 73
2020-06-11 17:00:00 18.4 8 Sudeste 17 Sur 0.4 -- -- 83
2020-06-11 16:00:00 18.3 9 Sur 27 Sudeste 0 -- -- 75
2020-06-11 15:00:00 19.2 13 Sur 29 Sudeste 0 -- -- 68
2020-06-11 14:00:00 20 13 Sur 27 Sudeste 0 -- -- 65
2020-06-11 13:00:00 19.5 13 Sudoeste 33 Sudeste 0 -- -- 66
2020-06-11 12:00:00 18.9 16 Sur 33 Sudeste 0 -- -- 67
2020-06-11 11:00:00 17.2 19 Sudeste 35 Sudeste 0 -- -- 77
2020-06-11 10:00:00 15.1 16 Sudeste 28 Sudeste 0 -- -- 77
2020-06-11 09:00:00 14.8 11 Sudeste 17 Sudeste 0 -- -- 85
2020-06-11 08:00:00 13.2 4 Sudeste 8 Sudeste 0 -- -- 98
2020-06-11 07:00:00 12.2 2 Este 6 Sudeste 0 -- -- 99
2020-06-11 06:00:00 12.4 5 Nordeste 9 Sur 0 -- -- 99
2020-06-11 05:00:00 12.4 5 Sur 13 Sur 0 -- -- 99
2020-06-11 04:00:00 10.7 2 Este 6 Sudeste 0 -- -- 100
2020-06-11 03:00:00 10.3 3 Sudeste 10 Sudeste 0 -- -- 99
2020-06-11 02:00:00 10.7 5 Este 9 Sudeste 0 -- -- 97
2020-06-11 01:00:00 12.3 7 Sudeste 11 Sudeste 0 -- -- 93
2020-06-11 00:00:00 12.9 4 Nordeste 10 Este 0 -- -- 92
2020-06-10 23:00:00 13.6 6 Sudeste 12 Sudeste 0 -- -- 87
2020-06-10 22:00:00 14.3 6 Sudeste 16 Sudeste 0 -- -- 85
2020-06-10 21:00:00 16.5 4 Sudeste 19 Noroeste 0 -- -- 66
2020-06-10 20:00:00 18.3 14 Oeste 22 Oeste 0 -- -- 50
2020-06-10 19:00:00 19.2 15 Noroeste 32 Noroeste 0 -- -- 43
2020-06-10 18:00:00 21.5 18 Noroeste 31 Oeste 0 -- -- 42
2020-06-10 17:00:00 21.7 15 Oeste 33 Oeste 0 -- -- 43
2020-06-10 16:00:00 21.3 18 Noroeste 27 Oeste 0 -- -- 45
2020-06-10 15:00:00 20.6 13 Noroeste 24 Oeste 0 -- -- 51
2020-06-10 14:00:00 19.2 11 Noroeste 25 Oeste 0 -- -- 54
2020-06-10 13:00:00 18 17 Oeste 26 Oeste 0 -- -- 59
2020-06-10 12:00:00 16.9 16 Oeste 22 Oeste 0 -- -- 65
2020-06-10 11:00:00 15.3 12 Oeste 18 Noroeste 0 -- -- 73
2020-06-10 10:00:00 12.9 14 Noroeste 24 Oeste 0 -- -- 84
2020-06-10 09:00:00 11.5 16 Noroeste 21 Oeste 0 -- -- 88
2020-06-10 08:00:00 8.6 8 Noroeste 14 Noroeste 0 -- -- 100
2020-06-10 07:00:00 4.2 0 Calma 5 Sudeste 0 -- -- 100
2020-06-10 06:00:00 4.8 3 Sudeste 6 Sudeste 0 -- -- 100
2020-06-10 05:00:00 5.7 5 Sudeste 8 Sudeste 0 -- -- 100
2020-06-10 04:00:00 7.1 0 Calma 6 Norte 0 -- -- 100
2020-06-10 03:00:00 8.8 3 Norte 6 Norte 0 -- -- 99
2020-06-10 02:00:00 11 3 Nordeste 6 Nordeste 0 -- -- 99
2020-06-10 01:00:00 12 2 Sudeste 9 Sudeste 0 -- -- 99
2020-06-10 00:00:00 12.1 3 Norte 9 Sudeste 0 -- -- 99
2020-06-09 23:00:00 12.2 5 Este 9 Sudeste 1.6 -- -- 98
2020-06-09 22:00:00 12.7 4 Nordeste 13 Sudeste 0 -- -- 93
2020-06-09 21:00:00 13.1 10 Sudeste 17 Sudeste 0 -- -- 86
2020-06-09 20:00:00 13.7 13 Sudeste 21 Sudeste 0 -- -- 81
2020-06-09 19:00:00 16.1 10 Sudeste 19 Sur 0 -- -- 72
2020-06-09 18:00:00 16.7 9 Nordeste 32 Oeste 0 -- -- 59
2020-06-09 17:00:00 20.5 18 Oeste 34 Noroeste 0 -- -- 44
2020-06-09 16:00:00 20.5 18 Noroeste 33 Noroeste 0 -- -- 46
2020-06-09 15:00:00 19.5 19 Noroeste 30 Noroeste 0 -- -- 50
2020-06-09 14:00:00 17.9 16 Oeste 31 Oeste 0 -- -- 55
2020-06-09 13:00:00 16.5 20 Noroeste 31 Noroeste 0 -- -- 62
2020-06-09 12:00:00 15.9 22 Oeste 34 Oeste 0 -- -- 66
2020-06-09 11:00:00 14.5 17 Noroeste 29 Noroeste 0 -- -- 71
2020-06-09 10:00:00 12.8 17 Noroeste 28 Oeste 0 -- -- 77
2020-06-09 09:00:00 11 18 Noroeste 25 Oeste 0 -- -- 85
2020-06-09 08:00:00 9.4 14 Noroeste 21 Noroeste 0 -- -- 93
2020-06-09 07:00:00 8.4 11 Noroeste 17 Noroeste 0 -- -- 100
2020-06-09 06:00:00 6.4 4 Noroeste 11 Noroeste 0 -- -- 100
2020-06-09 05:00:00 6.8 4 Noroeste 10 Noroeste 0 -- -- 100
2020-06-09 04:00:00 8.1 2 Noroeste 8 Norte 0 -- -- 100
2020-06-09 03:00:00 8.8 3 Noroeste 6 Sudeste 0 -- -- 100
2020-06-09 02:00:00 9.2 3 Este 8 Nordeste 0 -- -- 100
2020-06-09 01:00:00 9.1 4 Sudeste 9 Sudeste 0 -- -- 99
2020-06-09 00:00:00 9.7 5 Sudeste 13 Sur 0 -- -- 97
2020-06-08 23:00:00 10.9 5 Sudeste 17 Sudeste 0 -- -- 94
2020-06-08 22:00:00 11.4 10 Sudeste 23 Sur 0 -- -- 95
2020-06-08 21:00:00 12.9 12 Sudeste 23 Sudeste 0 -- -- 87
2020-06-08 20:00:00 14.2 10 Sur 22 Sur 0 -- -- 84
2020-06-08 19:00:00 12.4 6 Sudeste 12 Sudeste 0 -- -- 92
2020-06-08 18:00:00 12.7 6 Sur 23 Nordeste 0.6 -- -- 88
2020-06-08 17:00:00 16.7 6 Sudoeste 27 Sur 0 -- -- 65
2020-06-08 16:00:00 18.3 12 Oeste 27 Sudoeste 0 -- -- 60
2020-06-08 15:00:00 17.9 10 Oeste 19 Sudoeste 0 -- -- 57
2020-06-08 14:00:00 18.2 10 Noroeste 19 Oeste 0 -- -- 57
2020-06-08 13:00:00 16.3 6 Noroeste 23 Oeste 0 -- -- 62
2020-06-08 12:00:00 14.9 10 Noroeste 22 Oeste 0 -- -- 67
2020-06-08 11:00:00 12.8 12 Oeste 26 Noroeste 0 -- -- 76
2020-06-08 10:00:00 11.2 14 Noroeste 25 Oeste 0 -- -- 82
2020-06-08 09:00:00 8.9 19 Noroeste 27 Oeste 0 -- -- 90
2020-06-08 08:00:00 7.4 12 Noroeste 18 Noroeste 0 -- -- 97
2020-06-08 07:00:00 6.1 9 Noroeste 15 Noroeste 0 -- -- 100
2020-06-08 06:00:00 5.9 6 Noroeste 13 Noroeste 0 -- -- 100
2020-06-08 05:00:00 6.5 7 Noroeste 17 Noroeste 0 -- -- 100
2020-06-08 04:00:00 6.8 9 Noroeste 18 Noroeste 0 -- -- 100
2020-06-08 03:00:00 7.3 8 Noroeste 12 Noroeste 0 -- -- 100
2020-06-08 02:00:00 7.6 4 Este 7 Nordeste 0 -- -- 100
2020-06-08 01:00:00 8.7 0 Calma 5 Norte 0 -- -- 99
2020-06-08 00:00:00 10.8 0 Calma 13 Oeste 0 -- -- 97
2020-06-07 23:00:00 12.5 6 Noroeste 15 Sur 0 -- -- 97
2020-06-07 22:00:00 12.8 6 Sur 14 Sudoeste 0.2 -- -- 94
2020-06-07 21:00:00 13.5 5 Oeste 15 Sudeste 0.6 -- -- 93
2020-06-07 20:00:00 14 5 Sudoeste 21 Oeste 0.6 -- -- 91
2020-06-07 19:00:00 14.7 9 Sur 28 Sudoeste 0.6 -- -- 91
2020-06-07 18:00:00 15.6 15 Sur 28 Sur 1.8 -- -- 88
2020-06-07 17:00:00 18.3 16 Sur 36 Sudoeste 0 -- -- 73
2020-06-07 16:00:00 19.8 11 Sur 28 Oeste 0 -- -- 67
2020-06-07 15:00:00 21.2 15 Oeste 33 Oeste 0 -- -- 56
2020-06-07 14:00:00 20.1 16 Noroeste 27 Oeste 0 -- -- 64
2020-06-07 13:00:00 18.7 16 Noroeste 24 Oeste 0 -- -- 71
2020-06-07 12:00:00 18.7 15 Noroeste 23 Oeste 0 -- -- 73
2020-06-07 11:00:00 15 14 Noroeste 21 Oeste 0 -- -- 90
2020-06-07 10:00:00 15.2 12 Noroeste 22 Noroeste 0 -- -- 92
2020-06-07 09:00:00 13.9 13 Noroeste 20 Oeste 0 -- -- 99
2020-06-07 08:00:00 14.1 11 Noroeste 15 Oeste 0 -- -- 100
2020-06-07 07:00:00 14 6 Noroeste 14 Noroeste 0 -- -- 100
2020-06-07 06:00:00 13.4 0 Calma 12 Noroeste 0 -- -- 100
2020-06-07 05:00:00 12.4 4 Noroeste 9 Este 0 -- -- 100
2020-06-07 04:00:00 11.5 0 Calma 5 Sudeste 0 -- -- 100
2020-06-07 03:00:00 12.5 2 Este 6 Sudeste 0 -- -- 100
2020-06-07 02:00:00 12.9 2 Oeste 8 Este 0 -- -- 100
2020-06-07 01:00:00 14.1 5 Este 19 Noroeste 1.2 -- -- 97
2020-06-07 00:00:00 15.5 7 Sudeste 23 Sudeste 0 -- -- 94
2020-06-06 23:00:00 15.3 12 Sudeste 20 Sur 0 -- -- 92
2020-06-06 22:00:00 16.7 12 Sudeste 23 Sudeste 0 -- -- 90
2020-06-06 21:00:00 18 14 Sudeste 21 Sudeste 0 -- -- 83
2020-06-06 20:00:00 19.3 15 Sudeste 29 Sur 0 -- -- 72
2020-06-06 19:00:00 20.8 15 Sudeste 27 Sudeste 0 -- -- 72
2020-06-06 18:00:00 23.1 15 Sur 28 Sur 0 -- -- 63
2020-06-06 17:00:00 23.7 17 Sudoeste 31 Sudoeste 0 -- -- 60
2020-06-06 16:00:00 25 12 Sudoeste 29 Sudoeste 0 -- -- 57
2020-06-06 15:00:00 25.5 11 Oeste 31 Sur 0 -- -- 53
2020-06-06 14:00:00 26.4 4 Nordeste 22 Sudoeste 0 -- -- 43
2020-06-06 13:00:00 24.4 9 Sudoeste 22 Sur 0 -- -- 51
2020-06-06 12:00:00 23.9 6 Oeste 16 Noroeste 0 -- -- 54
2020-06-06 11:00:00 22 10 Noroeste 19 Oeste 0 -- -- 55
2020-06-06 10:00:00 20.5 8 Noroeste 14 Noroeste 0 -- -- 59
2020-06-06 09:00:00 17.9 5 Noroeste 8 Noroeste 0 -- -- 67
2020-06-06 08:00:00 11.5 6 Sudeste 7 Sudeste 0 -- -- 97
2020-06-06 07:00:00 7.7 5 Sudeste 6 Sudeste 0 -- -- 100
2020-06-06 06:00:00 7.4 5 Sudeste 8 Sudeste 0 -- -- 100
2020-06-06 05:00:00 7.8 0 Calma 4 Norte 0 -- -- 99
2020-06-06 04:00:00 8.2 2 Este 9 Sudeste 0 -- -- 98
2020-06-06 03:00:00 8.5 6 Sudeste 9 Sudeste 0 -- -- 97
2020-06-06 02:00:00 10 4 Sudeste 10 Sudeste 0 -- -- 93
2020-06-06 01:00:00 10 6 Este 10 Sudeste 0 -- -- 95
2020-06-06 00:00:00 11 8 Sudeste 11 Sudeste 0 -- -- 93
2020-06-05 23:00:00 12.4 4 Sudeste 8 Sudeste 0 -- -- 85
2020-06-05 22:00:00 15.4 2 Noroeste 19 Oeste 0 -- -- 70
2020-06-05 21:00:00 20.7 7 Noroeste 31 Noroeste 0 -- -- 51
2020-06-05 20:00:00 21.5 19 Noroeste 35 Oeste 0 -- -- 49
2020-06-05 19:00:00 21.8 22 Oeste 42 Oeste 0 -- -- 48
2020-06-05 18:00:00 21.2 31 Noroeste 48 Noroeste 0 -- -- 50
2020-06-05 17:00:00 21.3 24 Noroeste 43 Noroeste 0 -- -- 49
2020-06-05 16:00:00 20.8 27 Noroeste 42 Noroeste 0 -- -- 47
2020-06-05 15:00:00 19.9 22 Noroeste 39 Noroeste 0 -- -- 51
2020-06-05 14:00:00 18.9 21 Noroeste 40 Noroeste 0 -- -- 53
2020-06-05 13:00:00 17.3 29 Noroeste 44 Noroeste 0 -- -- 59
2020-06-05 12:00:00 16.1 26 Oeste 41 Noroeste 0 -- -- 62
2020-06-05 11:00:00 15 22 Noroeste 37 Oeste 0 -- -- 67
2020-06-05 10:00:00 13.2 27 Noroeste 48 Oeste 0 -- -- 74
2020-06-05 09:00:00 11.7 35 Noroeste 49 Oeste 0 -- -- 81
2020-06-05 08:00:00 10.6 31 Noroeste 42 Noroeste 0 -- -- 86
2020-06-05 07:00:00 9.7 24 Noroeste 38 Noroeste 0 -- -- 90
2020-06-05 06:00:00 9.8 19 Noroeste 41 Noroeste 0 -- -- 92
2020-06-05 05:00:00 10.1 22 Noroeste 41 Noroeste 0 -- -- 90
2020-06-05 04:00:00 10 18 Noroeste 31 Oeste 0 -- -- 91
2020-06-05 03:00:00 10.1 19 Noroeste 32 Noroeste 0 -- -- 90
2020-06-05 02:00:00 10.5 22 Noroeste 32 Oeste 0 -- -- 87
2020-06-05 01:00:00 11.1 22 Noroeste 35 Oeste 0 -- -- 83
2020-06-05 00:00:00 11.9 22 Noroeste 31 Noroeste 0 -- -- 80
2020-06-04 23:00:00 12.7 20 Noroeste 33 Oeste 0 -- -- 75
2020-06-04 22:00:00 13.6 23 Noroeste 41 Oeste 0 -- -- 71
2020-06-04 21:00:00 16 25 Noroeste 56 Noroeste 0 -- -- 60
2020-06-04 20:00:00 17.7 27 Noroeste 55 Noroeste 0 -- -- 56
2020-06-04 19:00:00 18.2 35 Oeste 63 Noroeste 0 -- -- 54
2020-06-04 18:00:00 19 32 Noroeste 53 Noroeste 0 -- -- 48
2020-06-04 17:00:00 18.3 35 Oeste 56 Oeste 0 -- -- 53
2020-06-04 16:00:00 18.8 31 Noroeste 51 Oeste 0 -- -- 56
2020-06-04 15:00:00 17.6 22 Noroeste 41 Noroeste 0 -- -- 70
2020-06-04 14:00:00 14.9 29 Noroeste 44 Oeste 0 -- -- 82
2020-06-04 13:00:00 14 22 Noroeste 32 Noroeste 0 -- -- 87
2020-06-04 12:00:00 12.8 20 Oeste 36 Oeste 0 -- -- 94
2020-06-04 11:00:00 12.2 20 Noroeste 32 Noroeste 0 -- -- 94
2020-06-04 10:00:00 12 14 Noroeste 27 Noroeste 0 -- -- 96
2020-06-04 09:00:00 11.9 16 Noroeste 26 Noroeste 2 -- -- 99
2020-06-04 08:00:00 12.2 17 Noroeste 34 Noroeste 0.8 -- -- 100
2020-06-04 07:00:00 12.8 22 Noroeste 43 Noroeste 0 -- -- 100
2020-06-04 06:00:00 13.5 23 Noroeste 36 Noroeste 0.2 -- -- 100
2020-06-04 05:00:00 14 19 Noroeste 32 Noroeste 0 -- -- 100
2020-06-04 04:00:00 13.9 20 Noroeste 32 Oeste 0 -- -- 100
2020-06-04 03:00:00 14.1 22 Noroeste 33 Noroeste 0 -- -- 100
2020-06-04 02:00:00 14 20 Noroeste 30 Oeste 0 -- -- 100
2020-06-04 01:00:00 13.8 8 Noroeste 13 Este 0 -- -- 99
2020-06-04 00:00:00 14.2 10 Este 14 Este 0.4 -- -- 99